Airport View

Enter AWOS ICAO identifier for current METAR.

ex. KFNL

KIAD 191752Z 19005KT 10SM FEW025 BKN110 BKN250 28/19 A2978 RMK AO2 SLP081 T02780194 10283 20222 58018

19 Jun 2019 18:46

Phone: 703-661-2990

Other Area AWOS: KJYO - KHEF - KDAA - KGAI

TAF KIAD 191737Z 1918/2024 19008KT P6SM VCSH FEW025 BKN100 FM191900 19006KT P6SM -SHRA VCTS SCT025 BKN100CB FM192300 19005KT P6SM -SHRA SCT035 OVC130 FM200600 VRB03KT 5SM BR SCT020 BKN120 FM201200 22007KT P6SM SCT020 BKN200